Time;durP1;ratioP1;P1;durP2;ratioP2;P2;SDS_P1;SDS_P2;PMS_P1;PMS_P2;Temp;Humidity;BMP_temperature;BMP_pressure;BME280_temperature;BME280_humidity;BME280_pressure;Samples;Min_cycle;Max_cycle;Signal;HPM_P1;HPM_P2
2023/08/22 00:00:22;;;;;;;10.45;5.60;;;19.00;99.90;;;;;;6157108;23;20044;-88
2023/08/22 00:02:47;;;;;;;9.38;5.55;;;19.10;99.90;;;;;;6157422;23;20451;-88
2023/08/22 00:05:14;;;;;;;12.60;5.38;;;19.00;99.90;;;;;;6132460;23;20013;-88
2023/08/22 00:07:41;;;;;;;10.88;5.80;;;19.00;99.90;;;;;;6132862;23;20459;-88
2023/08/22 00:10:07;;;;;;;11.07;5.68;;;19.00;99.90;;;;;;6157185;23;20463;-88
2023/08/22 00:12:33;;;;;;;9.43;5.65;;;19.00;99.90;;;;;;6157669;23;20051;-88
2023/08/22 00:14:59;;;;;;;13.63;8.00;;;19.10;99.90;;;;;;6157380;23;20009;-88
2023/08/22 00:17:24;;;;;;;15.85;11.10;;;19.00;99.90;;;;;;6133030;23;20017;-88
2023/08/22 00:19:50;;;;;;;14.93;11.13;;;19.00;99.90;;;;;;6157270;23;20017;-88
2023/08/22 00:22:16;;;;;;;12.13;6.15;;;19.00;99.90;;;;;;6157106;23;20096;-88
2023/08/22 00:24:42;;;;;;;11.45;5.93;;;19.10;99.90;;;;;;6132661;23;20432;-87
2023/08/22 00:27:07;;;;;;;10.77;5.80;;;19.00;99.90;;;;;;6132640;23;20029;-88
2023/08/22 00:29:33;;;;;;;9.98;5.50;;;19.00;99.90;;;;;;6132305;23;20454;-88
2023/08/22 00:31:59;;;;;;;10.82;5.28;;;19.00;99.90;;;;;;6133097;23;20387;-88
2023/08/22 00:34:25;;;;;;;11.10;6.05;;;19.00;99.90;;;;;;6133063;23;20417;-88
2023/08/22 00:36:50;;;;;;;11.20;6.60;;;19.00;99.90;;;;;;6157176;23;20088;-88
2023/08/22 00:39:16;;;;;;;9.20;5.80;;;18.90;99.90;;;;;;6157205;23;20092;-88
2023/08/22 00:41:42;;;;;;;10.23;6.35;;;18.90;99.90;;;;;;6157301;23;20510;-88
2023/08/22 00:44:08;;;;;;;12.80;6.57;;;18.90;99.90;;;;;;6132453;23;20020;-88
2023/08/22 00:46:35;;;;;;;9.77;5.55;;;18.90;99.90;;;;;;6156942;23;20017;-88
2023/08/22 00:49:03;;;;;;;10.20;5.97;;;18.80;99.90;;;;;;6132621;23;20473;-88
2023/08/22 00:51:28;;;;;;;10.23;4.28;;;18.80;99.90;;;;;;6156943;23;20108;-88
2023/08/22 00:53:54;;;;;;;12.80;6.20;;;18.70;99.90;;;;;;6157328;23;20041;-87
2023/08/22 00:56:19;;;;;;;13.63;7.18;;;18.70;99.90;;;;;;6157257;23;20021;-88
2023/08/22 00:58:45;;;;;;;10.02;6.50;;;18.80;99.90;;;;;;6157206;23;20023;-88
2023/08/22 01:01:11;;;;;;;11.00;6.40;;;18.80;99.90;;;;;;6132409;23;20013;-86
2023/08/22 01:03:37;;;;;;;13.23;7.22;;;18.70;99.90;;;;;;6156737;23;20016;-86
2023/08/22 01:06:14;;;;;;;11.35;6.57;;;18.70;99.90;;;;;;6156819;23;20031;-86
2023/08/22 01:08:46;;;;;;;13.45;7.55;;;18.70;99.90;;;;;;6185306;23;20013;-87
2023/08/22 01:11:22;;;;;;;11.23;6.43;;;18.70;99.90;;;;;;6158776;23;20013;-87
2023/08/22 01:13:51;;;;;;;11.50;7.43;;;18.70;99.90;;;;;;6134791;23;20021;-87
2023/08/22 01:16:18;;;;;;;9.77;4.60;;;18.60;99.90;;;;;;6134082;23;20013;-88
2023/08/22 01:18:45;;;;;;;9.70;4.80;;;18.60;99.90;;;;;;6134025;23;20024;-88
2023/08/22 01:21:19;;;;;;;11.43;5.18;;;18.60;99.90;;;;;;6133906;23;20009;-88
2023/08/22 01:23:45;;;;;;;10.57;4.90;;;18.60;99.90;;;;;;6133986;23;20017;-87
2023/08/22 01:26:11;;;;;;;8.55;4.43;;;18.50;99.90;;;;;;6158367;23;20021;-88
2023/08/22 01:28:42;;;;;;;9.70;4.97;;;18.50;99.90;;;;;;6158645;23;20009;-88
2023/08/22 01:31:24;;;;;;;10.27;5.00;;;18.50;99.90;;;;;;6134398;23;20342;-88
2023/08/22 01:33:55;;;;;;;11.70;5.40;;;18.50;99.90;;;;;;6159255;23;20009;-88
2023/08/22 01:36:23;;;;;;;10.45;6.50;;;18.50;99.90;;;;;;6158780;23;20087;-87
2023/08/22 01:38:49;;;;;;;11.43;6.55;;;18.50;99.90;;;;;;6158994;23;20032;-87
2023/08/22 01:41:15;;;;;;;11.85;6.53;;;18.50;99.90;;;;;;6158149;23;20013;-87
2023/08/22 01:43:44;;;;;;;12.65;7.10;;;18.50;99.90;;;;;;6133940;23;20028;-87
2023/08/22 01:46:10;;;;;;;10.18;6.82;;;18.50;99.90;;;;;;6158181;23;20020;-88
2023/08/22 01:48:36;;;;;;;12.73;8.57;;;18.50;99.90;;;;;;6133972;23;20017;-87
2023/08/22 01:51:02;;;;;;;10.90;7.47;;;18.60;99.90;;;;;;6158065;23;20016;-87
2023/08/22 01:53:28;;;;;;;11.45;7.43;;;18.50;99.90;;;;;;6133819;23;20009;-88
2023/08/22 01:55:57;;;;;;;11.25;7.13;;;18.60;99.90;;;;;;6133908;23;20067;-87
2023/08/22 01:58:23;;;;;;;12.80;6.20;;;18.50;99.90;;;;;;6134189;23;20020;-87
2023/08/22 02:00:48;;;;;;;9.07;4.88;;;18.50;99.90;;;;;;6158530;23;20069;-88
2023/08/22 02:03:14;;;;;;;13.00;8.15;;;18.50;99.90;;;;;;6133954;23;20451;-87
2023/08/22 02:05:39;;;;;;;15.55;8.57;;;18.50;99.90;;;;;;6157836;23;20055;-88
2023/08/22 02:08:05;;;;;;;12.23;7.82;;;18.50;99.90;;;;;;6133816;23;20013;-87
2023/08/22 02:10:30;;;;;;;11.40;7.68;;;18.60;99.90;;;;;;6157777;23;20461;-87
2023/08/22 02:12:56;;;;;;;11.50;6.78;;;18.60;99.90;;;;;;6158779;23;20338;-87
2023/08/22 02:15:22;;;;;;;10.65;6.30;;;18.50;99.90;;;;;;6158661;23;20013;-87
2023/08/22 02:17:48;;;;;;;10.18;6.40;;;18.50;99.90;;;;;;6133773;23;20036;-87
2023/08/22 02:20:14;;;;;;;10.57;5.70;;;18.50;99.90;;;;;;6158101;23;20044;-87
2023/08/22 02:22:40;;;;;;;9.02;5.60;;;18.50;99.90;;;;;;6158251;23;20020;-87
2023/08/22 02:25:08;;;;;;;9.23;4.15;;;18.50;99.90;;;;;;6133160;23;20049;-87
2023/08/22 02:27:33;;;;;;;8.50;4.82;;;18.40;99.90;;;;;;6157834;23;20064;-87
2023/08/22 02:29:59;;;;;;;9.48;5.40;;;18.40;99.90;;;;;;6158110;23;20005;-87
2023/08/22 02:32:25;;;;;;;11.45;6.35;;;18.40;99.90;;;;;;6158071;23;20013;-87
2023/08/22 02:34:50;;;;;;;11.15;7.55;;;18.40;99.90;;;;;;6133640;23;20020;-86
2023/08/22 02:37:16;;;;;;;11.52;6.45;;;18.40;99.90;;;;;;6170720;23;20015;-86
2023/08/22 02:39:42;;;;;;;11.10;6.25;;;18.30;99.90;;;;;;6148656;23;20020;-87
2023/08/22 02:42:07;;;;;;;11.82;7.28;;;18.30;99.90;;;;;;6159988;23;20088;-87
2023/08/22 02:44:33;;;;;;;11.52;7.78;;;18.30;99.90;;;;;;6160020;23;20017;-87
2023/08/22 02:46:58;;;;;;;14.18;8.18;;;18.30;99.90;;;;;;6134957;23;20024;-87
2023/08/22 02:49:24;;;;;;;13.63;7.72;;;18.30;99.90;;;;;;6159331;23;20013;-87
2023/08/22 02:51:49;;;;;;;12.30;5.82;;;18.30;99.90;;;;;;6135291;23;20471;-87
2023/08/22 02:54:15;;;;;;;11.65;8.15;;;18.30;99.90;;;;;;6134477;23;20010;-86
2023/08/22 02:56:40;;;;;;;14.02;9.50;;;18.20;99.90;;;;;;6158269;23;20013;-86
2023/08/22 02:59:06;;;;;;;11.43;6.68;;;18.20;99.90;;;;;;6133643;23;20013;-86
2023/08/22 03:01:32;;;;;;;13.52;7.28;;;18.20;99.90;;;;;;6132825;23;20020;-86
2023/08/22 03:03:57;;;;;;;11.15;8.23;;;18.20;99.90;;;;;;6132933;23;20521;-86
2023/08/22 03:06:23;;;;;;;13.02;8.30;;;18.20;99.90;;;;;;6132414;23;20019;-86
2023/08/22 03:08:49;;;;;;;15.77;11.27;;;18.20;99.90;;;;;;6157346;23;20013;-86
2023/08/22 03:11:15;;;;;;;14.10;11.00;;;18.30;99.90;;;;;;6157585;23;20471;-86
2023/08/22 03:13:40;;;;;;;15.25;11.57;;;18.30;99.90;;;;;;6157522;23;20037;-86
2023/08/22 03:16:06;;;;;;;12.90;10.32;;;18.30;99.90;;;;;;6157803;23;20079;-86
2023/08/22 03:18:32;;;;;;;12.68;6.80;;;18.30;99.90;;;;;;6157550;23;20455;-86
2023/08/22 03:20:57;;;;;;;13.70;9.18;;;18.30;99.90;;;;;;6157510;23;20016;-86
2023/08/22 03:23:23;;;;;;;11.60;8.48;;;18.20;99.90;;;;;;6157471;23;20045;-86
2023/08/22 03:26:00;;;;;;;12.32;5.95;;;18.20;99.90;;;;;;6157402;23;20052;-86
2023/08/22 03:28:26;;;;;;;14.05;8.57;;;18.10;99.90;;;;;;6157465;23;20067;-87
2023/08/22 03:31:02;;;;;;;15.35;8.43;;;18.00;99.90;;;;;;6131222;23;20045;-87
2023/08/22 03:33:29;;;;;;;13.25;8.40;;;18.10;99.90;;;;;;6157482;23;20089;-87
2023/08/22 03:35:57;;;;;;;13.75;8.82;;;18.00;99.90;;;;;;6156951;23;20017;-87
2023/08/22 03:38:23;;;;;;;14.23;9.70;;;18.00;99.90;;;;;;6157464;23;20066;-87
2023/08/22 03:40:49;;;;;;;13.35;9.90;;;18.00;99.90;;;;;;6157135;23;20013;-87
2023/08/22 03:43:16;;;;;;;13.38;9.73;;;18.00;99.90;;;;;;6157246;23;20355;-87
2023/08/22 03:45:43;;;;;;;14.23;10.98;;;17.90;99.90;;;;;;6157059;23;20013;-87
2023/08/22 03:48:09;;;;;;;19.45;11.65;;;17.90;99.90;;;;;;6157221;23;20394;-87
2023/08/22 03:50:34;;;;;;;13.73;10.90;;;17.90;99.90;;;;;;6132504;23;20013;-87
2023/08/22 03:53:00;;;;;;;16.15;10.57;;;17.90;99.90;;;;;;6157059;23;20347;-87
2023/08/22 03:55:25;;;;;;;14.48;10.57;;;17.90;99.90;;;;;;6132781;23;20092;-87
2023/08/22 03:57:51;;;;;;;15.98;10.13;;;17.90;99.90;;;;;;6157012;23;20013;-87
2023/08/22 04:00:17;;;;;;;13.35;10.80;;;17.90;99.90;;;;;;6157361;23;20180;-87
2023/08/22 04:02:42;;;;;;;12.10;7.95;;;17.90;99.90;;;;;;6132197;23;20005;-87
2023/08/22 04:05:08;;;;;;;14.52;10.30;;;17.90;99.90;;;;;;6132356;23;20425;-87
2023/08/22 04:07:34;;;;;;;12.27;8.43;;;17.90;99.90;;;;;;6131987;23;20013;-87
2023/08/22 04:09:59;;;;;;;12.75;8.55;;;17.90;99.90;;;;;;6132667;23;20009;-87
2023/08/22 04:12:25;;;;;;;14.48;8.48;;;17.80;99.90;;;;;;6132345;23;20207;-87
2023/08/22 04:14:51;;;;;;;11.27;7.10;;;17.80;99.90;;;;;;6157139;23;20049;-87
2023/08/22 04:17:16;;;;;;;13.80;9.40;;;17.70;99.90;;;;;;6132329;23;20362;-87
2023/08/22 04:19:42;;;;;;;11.82;8.75;;;17.70;99.90;;;;;;6131742;23;20017;-87
2023/08/22 04:22:07;;;;;;;12.27;9.07;;;17.80;99.90;;;;;;6156911;23;20013;-87
2023/08/22 04:24:33;;;;;;;11.05;8.85;;;17.70;99.90;;;;;;6156948;23;20009;-86
2023/08/22 04:26:59;;;;;;;13.48;9.23;;;17.70;99.90;;;;;;6156312;23;20013;-87
2023/08/22 04:29:24;;;;;;;14.98;9.57;;;17.70;99.90;;;;;;6156542;23;20033;-87
2023/08/22 04:31:50;;;;;;;10.95;6.97;;;17.60;99.90;;;;;;6132074;23;20013;-87
2023/08/22 04:34:16;;;;;;;12.68;9.98;;;17.60;99.90;;;;;;6132066;23;20040;-87
2023/08/22 04:36:41;;;;;;;14.73;10.23;;;17.60;99.90;;;;;;6132359;23;20017;-87
2023/08/22 04:39:07;;;;;;;13.07;10.40;;;17.60;99.90;;;;;;6156532;23;20013;-87
2023/08/22 04:41:33;;;;;;;12.95;9.50;;;17.60;99.90;;;;;;6157721;23;20358;-87
2023/08/22 04:43:58;;;;;;;15.70;10.63;;;17.60;99.90;;;;;;6134460;23;20362;-87
2023/08/22 04:46:24;;;;;;;14.38;11.05;;;17.60;99.90;;;;;;6133824;23;20013;-86
2023/08/22 04:48:49;;;;;;;10.82;7.03;;;17.60;99.90;;;;;;6158609;23;20389;-87
2023/08/22 04:51:15;;;;;;;15.82;10.32;;;17.60;99.90;;;;;;6133642;23;20458;-87
2023/08/22 04:53:41;;;;;;;12.20;7.18;;;17.60;99.90;;;;;;6158869;23;20013;-87
2023/08/22 04:56:06;;;;;;;13.00;10.93;;;17.60;99.90;;;;;;6158955;23;20024;-87
2023/08/22 04:58:32;;;;;;;13.05;11.00;;;17.60;99.90;;;;;;6158360;23;20021;-87
2023/08/22 05:00:58;;;;;;;15.70;11.98;;;17.60;99.90;;;;;;6158816;23;20020;-87
2023/08/22 05:03:24;;;;;;;14.35;10.70;;;17.60;99.90;;;;;;6133215;23;20020;-87
2023/08/22 05:05:50;;;;;;;12.82;10.73;;;17.60;99.90;;;;;;6157487;23;20083;-87
2023/08/22 05:08:16;;;;;;;12.60;7.82;;;17.60;99.90;;;;;;6157856;23;20646;-87
2023/08/22 05:10:41;;;;;;;15.80;11.88;;;17.50;99.90;;;;;;6158368;23;20088;-87
2023/08/22 05:13:07;;;;;;;16.95;13.27;;;17.50;99.90;;;;;;6158309;23;20487;-87
2023/08/22 05:15:32;;;;;;;14.15;12.57;;;17.60;99.90;;;;;;6158329;23;20043;-87
2023/08/22 05:17:58;;;;;;;13.20;8.85;;;17.60;99.90;;;;;;6157712;23;20040;-87
2023/08/22 05:20:24;;;;;;;15.68;12.18;;;17.60;99.90;;;;;;6158575;23;20009;-87
2023/08/22 05:22:49;;;;;;;13.70;11.55;;;17.60;99.90;;;;;;6133118;23;20013;-87
2023/08/22 05:25:15;;;;;;;13.98;10.98;;;17.60;99.90;;;;;;6183122;23;20463;-87
2023/08/22 05:27:40;;;;;;;10.68;7.60;;;17.60;99.90;;;;;;6157471;23;20498;-86
2023/08/22 05:30:07;;;;;;;10.25;6.72;;;17.60;99.90;;;;;;6157998;23;20356;-86
2023/08/22 05:32:32;;;;;;;10.07;7.45;;;17.60;99.90;;;;;;6157741;23;20576;-86
2023/08/22 05:34:58;;;;;;;10.48;7.45;;;17.60;99.90;;;;;;6157824;23;20036;-87
2023/08/22 05:37:24;;;;;;;10.27;6.63;;;17.50;99.90;;;;;;6133310;23;20083;-86
2023/08/22 05:39:50;;;;;;;9.27;5.65;;;17.50;99.90;;;;;;6158446;23;20398;-87
2023/08/22 05:42:16;;;;;;;7.25;3.83;;;17.50;99.90;;;;;;6133783;23;20478;-87
2023/08/22 05:44:41;;;;;;;11.82;5.90;;;17.50;99.90;;;;;;6133849;23;20013;-87
2023/08/22 05:47:08;;;;;;;8.30;5.20;;;17.50;99.90;;;;;;6157278;23;20021;-87
2023/08/22 05:49:34;;;;;;;6.75;3.22;;;17.50;99.90;;;;;;6158281;23;20485;-87
2023/08/22 05:52:04;;;;;;;8.60;4.60;;;17.50;99.90;;;;;;6158297;23;20013;-87
2023/08/22 05:54:33;;;;;;;12.68;10.75;;;17.50;99.90;;;;;;6158672;23;20338;-87
2023/08/22 05:56:59;;;;;;;13.55;11.85;;;17.60;99.90;;;;;;6158064;23;20112;-87
2023/08/22 05:59:24;;;;;;;14.93;12.23;;;17.60;99.90;;;;;;6133618;23;20025;-87
2023/08/22 06:01:50;;;;;;;14.13;12.43;;;17.70;99.90;;;;;;6158619;23;20024;-87
2023/08/22 06:04:19;;;;;;;15.93;12.75;;;17.70;99.90;;;;;;6133663;23;20016;-87
2023/08/22 06:06:44;;;;;;;13.70;10.63;;;17.80;99.90;;;;;;6157774;23;20067;-87
2023/08/22 06:09:11;;;;;;;13.65;11.05;;;17.80;99.90;;;;;;6133159;23;20391;-87
2023/08/22 06:11:36;;;;;;;13.40;10.70;;;17.90;99.90;;;;;;6158331;23;20020;-87
2023/08/22 06:14:03;;;;;;;13.05;7.78;;;18.00;99.90;;;;;;6157834;23;20009;-88
2023/08/22 06:16:28;;;;;;;15.18;11.40;;;18.00;99.90;;;;;;6133597;23;20505;-87
2023/08/22 06:18:54;;;;;;;13.13;9.00;;;18.10;99.90;;;;;;6158069;23;20013;-87
2023/08/22 06:21:20;;;;;;;16.98;12.55;;;18.10;99.90;;;;;;6157326;23;20052;-87
2023/08/22 06:23:45;;;;;;;16.85;14.57;;;18.20;99.90;;;;;;6157859;23;20020;-87
2023/08/22 06:26:11;;;;;;;17.05;14.35;;;18.30;99.90;;;;;;6157277;23;20648;-87
2023/08/22 06:28:37;;;;;;;17.00;14.90;;;18.40;99.90;;;;;;6156551;23;20047;-88
2023/08/22 06:31:03;;;;;;;19.20;14.90;;;18.50;99.90;;;;;;6157973;23;20084;-88
2023/08/22 06:33:29;;;;;;;17.67;15.25;;;18.50;99.90;;;;;;6157743;23;20012;-88
2023/08/22 06:35:55;;;;;;;18.15;15.48;;;18.60;99.90;;;;;;6133543;23;20063;-88
2023/08/22 06:38:20;;;;;;;21.55;15.45;;;18.70;99.90;;;;;;6133355;23;20013;-88
2023/08/22 06:40:46;;;;;;;18.52;14.77;;;18.80;99.90;;;;;;6133928;23;20021;-88
2023/08/22 06:43:11;;;;;;;19.88;14.20;;;18.80;99.90;;;;;;6157840;23;20399;-88
2023/08/22 06:45:37;;;;;;;17.30;14.32;;;18.90;99.90;;;;;;6157703;23;20359;-87
2023/08/22 06:48:03;;;;;;;16.42;13.55;;;18.90;99.90;;;;;;6131843;23;20016;-88
2023/08/22 06:50:29;;;;;;;18.40;14.50;;;19.00;99.90;;;;;;6133179;23;20033;-88
2023/08/22 06:52:54;;;;;;;17.55;13.57;;;19.10;99.90;;;;;;6157792;23;20005;-88
2023/08/22 06:55:20;;;;;;;18.13;14.57;;;19.20;99.90;;;;;;6156879;23;20013;-87
2023/08/22 06:57:45;;;;;;;18.98;14.73;;;19.30;99.90;;;;;;6132705;23;20016;-87
2023/08/22 07:00:15;;;;;;;17.08;14.00;;;19.30;99.90;;;;;;6134411;23;20016;-87
2023/08/22 07:02:45;;;;;;;17.42;13.30;;;19.40;99.90;;;;;;6184430;23;20013;-87
2023/08/22 07:05:13;;;;;;;16.33;12.90;;;19.50;99.90;;;;;;6156459;23;20009;-88
2023/08/22 07:07:39;;;;;;;16.45;13.20;;;19.50;99.90;;;;;;6156255;23;20024;-87
2023/08/22 07:10:06;;;;;;;21.40;13.23;;;19.60;99.90;;;;;;6157427;23;20009;-88
2023/08/22 07:12:33;;;;;;;16.55;12.57;;;19.60;99.90;;;;;;6157817;23;20020;-87
2023/08/22 07:14:59;;;;;;;16.58;13.05;;;19.60;99.90;;;;;;6133101;23;20013;-88
2023/08/22 07:17:25;;;;;;;15.23;11.60;;;19.70;99.90;;;;;;6157632;23;20009;-87
2023/08/22 07:19:50;;;;;;;18.88;12.27;;;19.70;99.90;;;;;;6132637;23;20463;-87
2023/08/22 07:22:16;;;;;;;15.68;11.75;;;19.80;99.90;;;;;;6133453;23;20025;-87
2023/08/22 07:24:41;;;;;;;16.25;11.88;;;19.80;99.90;;;;;;6132607;23;20417;-87
2023/08/22 07:27:10;;;;;;;18.33;12.40;;;19.90;99.90;;;;;;6132275;23;20017;-88
2023/08/22 07:29:36;;;;;;;17.92;13.32;;;20.00;99.90;;;;;;6157397;23;20013;-88
2023/08/22 07:32:02;;;;;;;14.98;10.68;;;20.10;99.90;;;;;;6132730;23;20059;-87
2023/08/22 07:34:28;;;;;;;15.60;11.15;;;20.20;99.90;;;;;;6157124;23;20013;-88
2023/08/22 07:36:53;;;;;;;14.90;11.27;;;20.30;99.90;;;;;;6157010;23;20023;-88
2023/08/22 07:39:21;;;;;;;17.40;12.15;;;20.30;99.90;;;;;;6157004;23;20020;-88
2023/08/22 07:41:46;;;;;;;14.50;9.50;;;20.50;99.90;;;;;;6133375;23;20028;-87
2023/08/22 07:44:13;;;;;;;15.45;9.70;;;20.50;99.90;;;;;;6132961;23;20016;-88
2023/08/22 07:46:38;;;;;;;14.40;9.23;;;20.60;99.90;;;;;;6131791;23;20359;-88
2023/08/22 07:49:04;;;;;;;15.20;9.30;;;20.60;99.90;;;;;;6132419;23;20020;-88
2023/08/22 07:51:30;;;;;;;13.75;9.02;;;20.70;99.90;;;;;;6157304;23;20029;-88
2023/08/22 07:53:56;;;;;;;14.32;8.35;;;20.80;99.90;;;;;;6132569;23;20017;-88
2023/08/22 07:56:22;;;;;;;11.77;7.28;;;20.90;99.90;;;;;;6132286;23;20012;-88
2023/08/22 07:58:48;;;;;;;12.75;7.43;;;21.00;99.90;;;;;;6156762;23;20100;-88
2023/08/22 08:01:14;;;;;;;11.25;6.93;;;21.00;99.90;;;;;;6133362;23;20024;-88
2023/08/22 08:03:40;;;;;;;11.13;7.20;;;21.10;99.90;;;;;;6132884;23;20470;-88
2023/08/22 08:06:06;;;;;;;10.20;5.97;;;21.20;99.90;;;;;;6157157;23;20050;-88
2023/08/22 08:08:31;;;;;;;10.70;5.40;;;21.20;99.90;;;;;;6183136;23;20358;-88
2023/08/22 08:10:57;;;;;;;11.27;5.47;;;21.30;99.90;;;;;;6157508;23;20484;-89
2023/08/22 08:13:23;;;;;;;9.07;5.28;;;21.40;99.90;;;;;;6132574;23;20060;-88
2023/08/22 08:15:49;;;;;;;12.77;6.78;;;21.50;99.90;;;;;;6132181;23;20373;-88
2023/08/22 08:18:15;;;;;;;11.25;5.50;;;21.60;99.90;;;;;;6158731;23;20017;-88
2023/08/22 08:20:42;;;;;;;9.15;4.22;;;21.70;99.90;;;;;;6159266;23;20013;-88
2023/08/22 08:23:08;;;;;;;9.30;5.65;;;21.70;99.90;;;;;;6159405;23;20048;-88
2023/08/22 08:25:33;;;;;;;10.05;4.93;;;21.80;99.90;;;;;;6134548;23;20470;-88
2023/08/22 08:27:59;;;;;;;11.05;4.00;;;21.90;99.90;;;;;;6158464;23;20005;-88
2023/08/22 08:30:25;;;;;;;8.70;3.30;;;21.90;99.90;;;;;;6134836;23;20382;-88
2023/08/22 08:32:50;;;;;;;10.00;3.33;;;21.90;99.90;;;;;;6135053;23;20013;-89
2023/08/22 08:35:16;;;;;;;8.48;3.58;;;21.90;99.90;;;;;;6159378;23;20009;-88
2023/08/22 08:37:42;;;;;;;8.07;3.13;;;21.90;99.90;;;;;;6134082;23;20455;-88
2023/08/22 08:40:08;;;;;;;6.95;3.08;;;21.90;99.90;;;;;;6159477;23;20013;-88
2023/08/22 08:42:38;;;;;;;8.07;3.15;;;21.90;99.90;;;;;;6134593;23;20383;-88
2023/08/22 08:45:05;;;;;;;7.95;3.30;;;22.00;99.90;;;;;;6133605;23;20013;-88
2023/08/22 08:47:33;;;;;;;6.85;2.63;;;22.00;99.90;;;;;;6158891;23;20016;-88
2023/08/22 08:50:00;;;;;;;6.80;2.80;;;22.10;99.90;;;;;;6134157;23;20005;-88
2023/08/22 08:52:27;;;;;;;6.78;2.83;;;22.10;99.90;;;;;;6134975;23;20513;-87
2023/08/22 08:54:54;;;;;;;6.40;2.75;;;22.20;99.90;;;;;;6134206;23;20084;-88
2023/08/22 08:57:19;;;;;;;9.73;3.17;;;22.20;99.90;;;;;;6134407;23;20013;-88
2023/08/22 08:59:45;;;;;;;6.50;2.50;;;22.20;99.90;;;;;;6159161;23;20073;-88
2023/08/22 09:02:15;;;;;;;7.45;2.80;;;22.20;99.90;;;;;;6160183;23;20454;-88
2023/08/22 09:04:41;;;;;;;7.40;2.85;;;22.30;99.90;;;;;;6159188;23;20088;-87
2023/08/22 09:07:08;;;;;;;6.68;2.40;;;22.30;99.90;;;;;;6134454;23;20055;-88
2023/08/22 09:09:36;;;;;;;7.88;2.72;;;22.30;99.90;;;;;;6158779;23;20047;-87
2023/08/22 09:12:07;;;;;;;7.50;2.20;;;22.40;99.90;;;;;;6159503;23;20013;-87
2023/08/22 09:14:34;;;;;;;6.55;2.10;;;22.50;97.20;;;;;;6134871;23;20009;-88
2023/08/22 09:17:01;;;;;;;7.13;2.33;;;22.50;95.60;;;;;;6159222;23;20012;-88
2023/08/22 09:19:32;;;;;;;6.97;1.98;;;22.40;92.70;;;;;;6133891;23;20021;-88
2023/08/22 09:21:59;;;;;;;5.88;1.75;;;22.40;93.90;;;;;;6159476;23;20100;-88
2023/08/22 09:24:26;;;;;;;5.70;1.90;;;22.40;95.00;;;;;;6134044;23;20055;-87
2023/08/22 09:26:53;;;;;;;5.88;1.90;;;22.40;94.30;;;;;;6158647;23;20063;-88
2023/08/22 09:29:45;;;;;;;6.75;2.20;;;22.40;96.20;;;;;;6134029;23;20470;-87
2023/08/22 09:32:10;;;;;;;6.88;2.58;;;22.40;99.30;;;;;;6154978;23;20020;-88
2023/08/22 09:34:37;;;;;;;9.85;2.67;;;22.40;98.50;;;;;;6159176;23;20009;-87
2023/08/22 09:37:02;;;;;;;7.18;2.20;;;22.40;99.90;;;;;;6159022;23;20320;-87
2023/08/22 09:39:33;;;;;;;6.45;2.42;;;22.40;99.90;;;;;;6133906;23;20469;-88
2023/08/22 09:42:00;;;;;;;7.63;2.08;;;22.40;99.90;;;;;;6158445;23;20474;-87
2023/08/22 09:44:27;;;;;;;5.22;2.03;;;22.40;99.90;;;;;;6132067;23;20013;-87
2023/08/22 09:46:54;;;;;;;6.78;1.85;;;22.60;98.20;;;;;;6158649;23;20017;-87
2023/08/22 09:49:21;;;;;;;4.50;1.50;;;22.70;99.90;;;;;;6133599;23;20012;-87
2023/08/22 09:51:53;;;;;;;5.55;1.77;;;22.70;97.30;;;;;;6134130;23;20009;-87
2023/08/22 09:54:19;;;;;;;6.25;1.70;;;22.80;94.80;;;;;;6158690;23;20100;-88
2023/08/22 09:56:45;;;;;;;7.13;2.15;;;22.90;96.60;;;;;;6133701;23;20049;-87
2023/08/22 09:59:13;;;;;;;6.72;2.00;;;23.00;96.00;;;;;;6133967;23;20017;-87
2023/08/22 10:01:41;;;;;;;7.00;2.50;;;23.10;96.70;;;;;;6134612;23;20354;-87
2023/08/22 10:04:08;;;;;;;5.90;2.08;;;23.10;93.10;;;;;;6134380;23;20147;-88
2023/08/22 10:06:38;;;;;;;7.57;2.40;;;23.10;96.00;;;;;;6133529;23;20009;-88
2023/08/22 10:09:10;;;;;;;8.65;2.25;;;23.10;91.90;;;;;;6132825;23;20348;-88
2023/08/22 10:11:41;;;;;;;6.05;2.05;;;23.10;92.90;;;;;;6158014;23;20016;-87
2023/08/22 10:14:12;;;;;;;6.80;2.10;;;23.10;92.40;;;;;;6133786;23;20041;-88
2023/08/22 10:16:38;;;;;;;6.70;2.42;;;23.20;91.20;;;;;;6133963;23;20390;-88
2023/08/22 10:19:04;;;;;;;7.15;2.05;;;23.20;91.50;;;;;;6133977;23;20351;-87
2023/08/22 10:21:42;;;;;;;8.60;2.42;;;23.30;90.40;;;;;;6134213;23;20013;-87
2023/08/22 10:24:29;;;;;;;6.55;2.25;;;23.30;90.10;;;;;;6134119;23;20024;-87
2023/08/22 10:27:03;;;;;;;8.60;2.30;;;23.30;89.90;;;;;;6133678;23;20020;-87
2023/08/22 10:29:47;;;;;;;6.50;2.00;;;23.30;87.50;;;;;;6132735;23;20019;-87
2023/08/22 10:32:19;;;;;;;8.05;2.20;;;23.30;90.10;;;;;;6158175;23;20084;-88
2023/08/22 10:34:44;;;;;;;7.35;2.20;;;23.40;90.10;;;;;;6133576;23;20016;-87
2023/08/22 10:37:17;;;;;;;7.57;2.50;;;23.30;86.70;;;;;;6133427;23;20012;-87
2023/08/22 10:39:44;;;;;;;7.50;1.98;;;23.30;87.40;;;;;;6132960;23;20013;-88
2023/08/22 10:42:20;;;;;;;7.85;2.03;;;23.40;91.00;;;;;;6133976;23;20013;-88
2023/08/22 10:44:55;;;;;;;8.00;2.55;;;23.50;90.00;;;;;;6133412;23;20035;-88
2023/08/22 10:47:32;;;;;;;6.30;1.92;;;23.60;89.20;;;;;;6157294;23;20017;-88
2023/08/22 10:50:00;;;;;;;6.80;1.88;;;23.70;88.00;;;;;;6133214;23;20482;-88
2023/08/22 10:52:26;;;;;;;6.00;2.10;;;23.80;85.70;;;;;;6132954;23;20020;-88
2023/08/22 10:54:59;;;;;;;6.80;2.10;;;23.80;86.40;;;;;;6158155;23;20387;-88
2023/08/22 10:57:26;;;;;;;6.85;2.20;;;23.90;88.10;;;;;;6133126;23;20013;-88
2023/08/22 11:00:12;;;;;;;7.18;2.15;;;23.80;85.50;;;;;;6132922;23;20024;-88
2023/08/22 11:02:42;;;;;;;5.93;1.85;;;23.80;85.70;;;;;;6133985;23;20099;-88
2023/08/22 11:05:10;;;;;;;6.55;1.95;;;23.70;86.40;;;;;;6157949;23;20024;-88
2023/08/22 11:07:36;;;;;;;8.65;2.17;;;23.80;86.10;;;;;;6157023;23;20080;-88
2023/08/22 11:10:03;;;;;;;6.80;2.40;;;23.80;86.20;;;;;;6157634;23;20332;-88
2023/08/22 11:12:29;;;;;;;6.63;2.22;;;23.80;87.00;;;;;;6133004;23;20092;-88
2023/08/22 11:14:57;;;;;;;6.78;1.77;;;23.80;88.20;;;;;;6155353;23;20028;-86
2023/08/22 11:17:23;;;;;;;6.18;1.60;;;23.90;86.30;;;;;;6168148;23;20017;-88
2023/08/22 11:19:52;;;;;;;4.00;1.40;;;24.00;88.70;;;;;;6134628;23;20020;-88
2023/08/22 11:22:18;;;;;;;5.47;1.80;;;24.20;86.20;;;;;;6185276;23;20351;-88
2023/08/22 11:24:45;;;;;;;6.78;1.80;;;24.20;79.60;;;;;;6134893;23;20459;-88
2023/08/22 11:27:15;;;;;;;6.38;1.80;;;24.40;80.10;;;;;;6134431;23;20068;-88
2023/08/22 11:29:49;;;;;;;8.48;1.65;;;24.50;82.00;;;;;;6134454;23;20039;-88
2023/08/22 11:32:29;;;;;;;5.28;1.35;;;24.70;79.90;;;;;;6185480;23;20009;-88
2023/08/22 11:35:00;;;;;;;2.90;1.00;;;24.60;72.60;;;;;;6134032;23;20013;-87
2023/08/22 11:37:27;;;;;;;4.00;1.30;;;24.50;72.40;;;;;;6157977;23;20009;-87
2023/08/22 11:39:54;;;;;;;5.03;1.52;;;24.50;74.20;;;;;;6132523;23;20024;-88
2023/08/22 11:42:24;;;;;;;4.53;1.40;;;24.60;74.60;;;;;;6132942;23;20021;-88
2023/08/22 11:45:09;;;;;;;6.30;1.50;;;24.80;74.70;;;;;;6133562;23;20347;-88
2023/08/22 11:47:46;;;;;;;3.50;1.10;;;24.90;75.10;;;;;;6132691;23;20021;-88
2023/08/22 11:50:16;;;;;;;5.75;1.50;;;24.90;73.80;;;;;;6156813;23;20016;-88
2023/08/22 11:52:43;;;;;;;4.95;1.30;;;25.00;74.50;;;;;;6184351;23;20016;-88
2023/08/22 11:55:10;;;;;;;6.15;1.20;;;25.00;74.00;;;;;;6133343;23;20059;-88
2023/08/22 11:57:41;;;;;;;4.95;1.00;;;25.20;72.70;;;;;;6132761;23;20087;-87
2023/08/22 12:00:10;;;;;;;4.03;1.00;;;25.30;70.80;;;;;;6157771;23;20017;-88
2023/08/22 12:02:37;;;;;;;6.03;1.10;;;25.30;71.40;;;;;;6132595;23;20023;-88
2023/08/22 12:05:03;;;;;;;3.45;1.00;;;25.50;72.10;;;;;;6132750;23;20017;-88
2023/08/22 12:07:41;;;;;;;6.55;1.20;;;25.50;70.20;;;;;;6132044;23;20021;-88
2023/08/22 12:10:07;;;;;;;3.45;1.10;;;25.60;68.70;;;;;;6131917;23;20017;-88
2023/08/22 12:12:33;;;;;;;6.10;1.00;;;25.70;69.30;;;;;;6131894;23;20107;-88
2023/08/22 12:14:59;;;;;;;4.40;1.00;;;25.70;66.90;;;;;;6132638;23;20009;-89
2023/08/22 12:17:25;;;;;;;3.78;0.80;;;25.80;69.40;;;;;;6156673;23;20064;-89
2023/08/22 12:19:51;;;;;;;4.25;1.02;;;25.90;68.40;;;;;;6132582;23;20143;-89
2023/08/22 12:22:17;;;;;;;4.13;1.02;;;26.00;69.50;;;;;;6157697;23;20052;-88
2023/08/22 12:24:44;;;;;;;5.13;1.40;;;26.10;68.50;;;;;;6133423;23;20017;-88
2023/08/22 12:27:12;;;;;;;4.47;1.20;;;26.20;67.80;;;;;;6157286;23;20013;-88
2023/08/22 12:29:40;;;;;;;4.95;1.10;;;26.30;68.70;;;;;;6156310;23;20005;-88
2023/08/22 12:32:06;;;;;;;4.35;1.20;;;26.20;67.10;;;;;;6132832;23;20241;-89
2023/08/22 12:34:32;;;;;;;3.97;1.15;;;26.30;67.70;;;;;;6132512;23;20020;-90
2023/08/22 12:37:00;;;;;;;5.22;1.10;;;26.30;67.50;;;;;;6157069;23;20021;-89